Lakeway's Hourly Summary for Sunday, March 19, 2017
Hour Temp
(f)
RH
(%)
Solar Rad.
(MJ/m2)
Rainfall
(in)
Wind
(mph)
3/19/2017 12:00 AM 68 88 0 0 3.44
3/19/2017 1:00 AM 67 100 0 0 2.9
3/19/2017 2:00 AM 65 100 0 0 1.77
3/19/2017 3:00 AM 64 100 0 0 1.9
3/19/2017 4:00 AM 63 100 0 0 2.19
3/19/2017 5:00 AM 62 100 0 0 1.54
3/19/2017 6:00 AM 62 100 0 0 0.86
3/19/2017 7:00 AM 62 100 0 0 0.44
3/19/2017 8:00 AM 62 100 0.01 0 1.32
3/19/2017 9:00 AM 63 100 0.17 0 0.4
3/19/2017 10:00 AM 65 87 0.83 0 0.81
3/19/2017 11:00 AM 70 67 1.86 0 1.29
3/19/2017 12:00 PM 74 57 2.49 0 1.33
3/19/2017 1:00 PM 77 50 2.92 0 2.28
3/19/2017 2:00 PM 78 47 2.88 0 3.47
3/19/2017 3:00 PM 80 44 1.44 0 2.49
3/19/2017 4:00 PM 81 41 2.73 0 2.56
3/19/2017 5:00 PM 82 38 2.23 0 2.88
3/19/2017 6:00 PM 82 41 1.55 0 2.81
3/19/2017 7:00 PM 80 43 0.78 0 2.98
3/19/2017 8:00 PM 76 50 0.09 0 2.84
3/19/2017 9:00 PM 73 58 0 0 2.6
3/19/2017 10:00 PM 71 63 0 0 1.76
3/19/2017 11:00 PM 68 68 0 0 0.1
Data Summary 70 72 19.98 0.00 1.96